createdAt,value
2023-03-31T00:00:58.114Z,81.39
2023-03-31T00:03:46.815Z,82.06
2023-03-31T00:06:38.312Z,81.99
2023-03-31T00:09:29.910Z,81.21
2023-03-31T00:12:18.424Z,81.22
2023-03-31T00:15:07.465Z,81.63
2023-03-31T00:18:00.599Z,81.69
2023-03-31T00:20:49.228Z,80.46
2023-03-31T00:23:37.583Z,81.12
2023-03-31T00:26:26.425Z,81.94
2023-03-31T00:29:15.348Z,81.61
2023-03-31T00:32:04.136Z,81.41
2023-03-31T00:34:53.891Z,81.16
2023-03-31T00:37:45.901Z,80.98
2023-03-31T00:40:34.278Z,81.30
2023-03-31T00:43:32.380Z,81.19
2023-03-31T00:46:23.964Z,81.01
2023-03-31T00:49:20.904Z,80.66
2023-03-31T00:52:13.695Z,81.26
2023-03-31T00:55:05.133Z,80.86
2023-03-31T00:57:55.299Z,81.11
2023-03-31T01:00:43.923Z,81.41
2023-03-31T01:03:33.485Z,82.00
2023-03-31T01:06:23.715Z,82.55
2023-03-31T01:09:14.185Z,82.88
2023-03-31T01:12:04.420Z,83.09
2023-03-31T01:14:53.094Z,82.15
2023-03-31T01:17:45.061Z,83.09
2023-03-31T01:20:40.994Z,82.45
2023-03-31T01:23:47.960Z,81.80
2023-03-31T01:27:02.117Z,82.34
2023-03-31T01:30:07.100Z,81.29
2023-03-31T01:33:34.083Z,81.44
2023-03-31T01:37:07.229Z,81.17
2023-03-31T01:40:30.957Z,82.35
2023-03-31T01:43:24.517Z,83.42
2023-03-31T01:46:19.347Z,84.64
2023-03-31T01:49:18.153Z,84.65
2023-03-31T01:52:13.981Z,84.53
2023-03-31T01:55:06.490Z,83.82
2023-03-31T01:57:55.482Z,83.95
2023-03-31T02:00:52.050Z,83.60
2023-03-31T02:03:45.992Z,84.66
2023-03-31T02:06:37.239Z,84.54
2023-03-31T02:09:27.919Z,83.60
2023-03-31T02:12:18.310Z,83.63
2023-03-31T02:15:09.482Z,84.27
2023-03-31T02:18:01.558Z,84.01
2023-03-31T02:20:52.825Z,84.14
2023-03-31T02:23:41.516Z,84.24
2023-03-31T02:26:31.862Z,83.48
2023-03-31T02:29:20.436Z,83.23
2023-03-31T02:32:13.589Z,83.30
2023-03-31T02:35:03.715Z,83.48
2023-03-31T02:37:52.546Z,83.85
2023-03-31T02:40:42.054Z,84.17
2023-03-31T02:43:30.442Z,84.00
2023-03-31T02:46:18.872Z,83.77
2023-03-31T02:49:08.765Z,83.66
2023-03-31T02:52:22.154Z,83.31
2023-03-31T02:55:21.404Z,83.10
2023-03-31T02:58:31.389Z,83.50
2023-03-31T03:01:32.448Z,82.83
2023-03-31T03:04:37.289Z,83.34
2023-03-31T03:07:32.762Z,83.12
2023-03-31T03:10:29.009Z,83.98
2023-03-31T03:13:43.381Z,83.90
2023-03-31T03:16:40.560Z,83.82
2023-03-31T03:19:29.102Z,84.21
2023-03-31T03:22:17.464Z,83.97
2023-03-31T03:25:09.493Z,84.17
2023-03-31T03:27:57.905Z,84.59
2023-03-31T03:30:46.496Z,84.34
2023-03-31T03:33:34.909Z,84.04
2023-03-31T03:36:23.800Z,84.91
2023-03-31T03:39:12.368Z,87.32
2023-03-31T03:42:02.210Z,87.94
2023-03-31T03:44:51.760Z,89.66
2023-03-31T03:47:40.197Z,91.30
2023-03-31T03:50:28.641Z,91.05
2023-03-31T03:53:17.469Z,91.43
2023-03-31T03:56:06.536Z,90.94
2023-03-31T03:58:56.499Z,90.99
2023-03-31T04:01:45.178Z,91.27
2023-03-31T04:04:33.612Z,91.77
2023-03-31T04:07:47.211Z,93.96
2023-03-31T04:10:35.918Z,94.72
2023-03-31T04:13:24.329Z,96.05
2023-03-31T04:16:14.242Z,96.25
2023-03-31T04:19:03.894Z,97.57
2023-03-31T04:21:58.879Z,97.87
2023-03-31T04:24:52.756Z,97.67
2023-03-31T04:27:46.891Z,97.53
2023-03-31T04:30:39.845Z,97.42
2023-03-31T04:33:29.767Z,99.25
2023-03-31T04:36:18.674Z,99.22
2023-03-31T04:39:10.812Z,99.05
2023-03-31T04:42:00.950Z,98.62
2023-03-31T04:44:49.291Z,98.51
2023-03-31T04:47:37.820Z,98.30
2023-03-31T04:50:28.473Z,98.49
2023-03-31T04:53:16.820Z,98.66
2023-03-31T04:56:06.041Z,99.96
2023-03-31T04:58:54.793Z,100.00
2023-03-31T05:01:45.188Z,100.00
2023-03-31T05:04:33.684Z,100.00
2023-03-31T05:07:23.463Z,100.00
2023-03-31T05:10:12.282Z,100.00
2023-03-31T05:13:00.692Z,100.00
2023-03-31T05:15:50.790Z,100.00
2023-03-31T05:18:39.259Z,100.00
2023-03-31T05:21:30.708Z,100.00
2023-03-31T05:24:21.018Z,100.00
2023-03-31T05:27:09.390Z,99.83
2023-03-31T05:29:58.413Z,99.28
2023-03-31T05:32:46.905Z,98.24
2023-03-31T05:35:35.336Z,98.39
2023-03-31T05:38:23.783Z,96.98
2023-03-31T05:41:13.524Z,97.52
2023-03-31T05:44:02.401Z,97.74
2023-03-31T05:46:50.865Z,98.47
2023-03-31T05:49:39.571Z,96.81
2023-03-31T05:52:27.930Z,96.96
2023-03-31T05:55:16.401Z,97.23
2023-03-31T05:58:06.780Z,97.10
2023-03-31T06:01:02.709Z,97.15
2023-03-31T06:03:51.638Z,96.48
2023-03-31T06:06:40.068Z,96.75
2023-03-31T06:09:28.666Z,97.21
2023-03-31T06:12:17.155Z,95.90
2023-03-31T06:15:07.956Z,95.81
2023-03-31T06:17:56.479Z,95.75
2023-03-31T06:20:44.893Z,97.19
2023-03-31T06:23:33.623Z,97.30
2023-03-31T06:26:22.719Z,97.52
2023-03-31T06:29:11.109Z,97.59
2023-03-31T06:32:01.238Z,95.49
2023-03-31T06:34:49.709Z,97.17
2023-03-31T06:37:38.060Z,97.60
2023-03-31T06:40:26.682Z,99.07
2023-03-31T06:43:15.030Z,99.73
2023-03-31T06:46:03.459Z,98.21
2023-03-31T06:48:54.409Z,96.86
2023-03-31T06:51:42.851Z,96.67
2023-03-31T06:54:31.403Z,96.02
2023-03-31T06:57:20.927Z,96.13
2023-03-31T07:00:10.722Z,97.16
2023-03-31T07:02:59.598Z,96.96
2023-03-31T07:05:51.147Z,96.33
2023-03-31T07:08:39.510Z,96.40
2023-03-31T07:11:27.972Z,95.05
2023-03-31T07:14:16.375Z,94.36
2023-03-31T07:17:04.806Z,95.89
2023-03-31T07:19:53.278Z,95.94
2023-03-31T07:22:43.216Z,96.77
2023-03-31T07:25:31.736Z,96.56
2023-03-31T07:28:20.170Z,96.94
2023-03-31T07:31:12.948Z,98.39
2023-03-31T07:34:02.989Z,100.00
2023-03-31T07:36:52.931Z,100.00
2023-03-31T07:39:42.667Z,100.00
2023-03-31T07:42:31.059Z,100.00
2023-03-31T07:45:20.365Z,100.00
2023-03-31T07:48:08.840Z,100.00
2023-03-31T07:50:57.269Z,100.00
2023-03-31T07:53:53.178Z,100.00
2023-03-31T07:56:42.993Z,100.00
2023-03-31T07:59:32.374Z,100.00
2023-03-31T08:02:20.882Z,100.00
2023-03-31T08:05:11.360Z,100.00
2023-03-31T08:07:59.788Z,100.00
2023-03-31T08:10:48.708Z,100.00
2023-03-31T08:13:38.482Z,100.00
2023-03-31T08:16:26.904Z,100.00
2023-03-31T08:19:15.555Z,100.00
2023-03-31T08:22:04.039Z,100.00
2023-03-31T08:24:52.650Z,99.71
2023-03-31T08:27:41.918Z,99.45
2023-03-31T08:30:31.681Z,100.00
2023-03-31T08:33:20.081Z,100.00
2023-03-31T08:36:11.042Z,99.20
2023-03-31T08:38:59.719Z,99.47
2023-03-31T08:41:56.554Z,100.00
2023-03-31T08:44:47.644Z,99.57
2023-03-31T08:47:38.334Z,99.81
2023-03-31T08:50:28.837Z,100.00
2023-03-31T08:53:27.054Z,99.33
2023-03-31T08:56:18.310Z,98.37
2023-03-31T08:59:07.601Z,98.37
2023-03-31T09:02:02.195Z,98.29
2023-03-31T09:05:23.022Z,98.22
2023-03-31T09:08:17.637Z,98.13
2023-03-31T09:11:15.730Z,98.51
2023-03-31T09:14:17.129Z,99.44
2023-03-31T09:17:15.449Z,100.00
2023-03-31T09:20:08.675Z,100.00
2023-03-31T09:23:02.080Z,100.00
2023-03-31T09:25:52.182Z,100.00
2023-03-31T09:28:41.222Z,100.00
2023-03-31T09:31:29.832Z,100.00
2023-03-31T09:34:22.832Z,100.00
2023-03-31T09:37:11.301Z,100.00
2023-03-31T09:40:02.544Z,100.00
2023-03-31T09:42:56.121Z,100.00
2023-03-31T09:45:57.587Z,100.00
2023-03-31T09:48:55.677Z,100.00
2023-03-31T09:51:47.567Z,100.00
2023-03-31T09:54:38.611Z,100.00
2023-03-31T09:57:31.301Z,100.00
2023-03-31T10:00:24.374Z,99.33
2023-03-31T10:03:14.870Z,99.75
2023-03-31T10:06:03.925Z,100.00
2023-03-31T10:08:53.200Z,97.43
2023-03-31T10:11:53.276Z,99.07
2023-03-31T10:14:43.777Z,96.02
2023-03-31T10:17:43.628Z,94.31
2023-03-31T10:20:45.071Z,90.16
2023-03-31T10:23:35.413Z,85.74
2023-03-31T10:26:27.313Z,86.98
2023-03-31T10:29:22.051Z,80.04
2023-03-31T10:32:15.152Z,80.08
2023-03-31T10:35:08.512Z,75.75
2023-03-31T10:37:58.730Z,74.18
2023-03-31T10:40:52.500Z,74.16
2023-03-31T10:43:42.263Z,73.67
2023-03-31T10:46:44.488Z,76.02
2023-03-31T10:49:38.829Z,75.44
2023-03-31T10:52:29.376Z,75.85
2023-03-31T10:55:24.760Z,72.31
2023-03-31T10:58:24.691Z,70.33
2023-03-31T11:01:23.608Z,71.89
2023-03-31T11:04:43.384Z,71.51
2023-03-31T11:07:43.206Z,68.68
2023-03-31T11:10:39.568Z,66.66
2023-03-31T11:13:33.905Z,69.27
2023-03-31T11:16:29.053Z,67.06
2023-03-31T11:19:27.481Z,69.35
2023-03-31T11:22:22.878Z,66.83
2023-03-31T11:25:29.907Z,66.94
2023-03-31T11:28:45.564Z,66.80
2023-03-31T11:31:48.932Z,68.19
2023-03-31T11:34:53.136Z,66.22
2023-03-31T11:37:54.294Z,68.61
2023-03-31T11:40:51.314Z,67.99
2023-03-31T11:43:44.118Z,67.06
2023-03-31T11:46:38.724Z,66.31
2023-03-31T11:49:28.964Z,63.53
2023-03-31T11:52:19.366Z,63.26
2023-03-31T11:55:15.414Z,61.23
2023-03-31T11:58:07.127Z,62.49
2023-03-31T12:01:00.660Z,59.78
2023-03-31T12:03:55.996Z,58.53
2023-03-31T12:06:47.104Z,57.21
2023-03-31T12:09:39.922Z,56.72
2023-03-31T12:12:31.227Z,56.93
2023-03-31T12:15:24.358Z,58.64
2023-03-31T12:18:16.162Z,59.64
2023-03-31T12:21:06.063Z,59.94
2023-03-31T12:23:54.513Z,60.47
2023-03-31T12:26:49.348Z,61.06
2023-03-31T12:29:39.859Z,62.79
2023-03-31T12:32:31.537Z,63.05
2023-03-31T12:35:23.289Z,63.88
2023-03-31T12:38:28.958Z,64.01
2023-03-31T12:41:22.908Z,63.25
2023-03-31T12:44:30.599Z,62.71
2023-03-31T12:48:04.524Z,62.55
2023-03-31T12:51:01.808Z,60.81
2023-03-31T12:54:02.551Z,60.13
2023-03-31T12:57:05.597Z,60.64
2023-03-31T13:00:30.682Z,60.38
2023-03-31T13:03:54.530Z,60.07
2023-03-31T13:06:53.877Z,57.62
2023-03-31T13:09:55.152Z,59.11
2023-03-31T13:12:57.893Z,59.27
2023-03-31T13:15:52.051Z,56.29
2023-03-31T13:18:43.669Z,56.08
2023-03-31T13:21:32.194Z,57.09
2023-03-31T13:24:23.183Z,55.61
2023-03-31T13:27:31.225Z,57.91
2023-03-31T13:30:48.953Z,57.64
2023-03-31T13:33:42.458Z,56.04
2023-03-31T13:36:55.419Z,58.22
2023-03-31T13:40:01.243Z,58.91
2023-03-31T13:43:26.506Z,58.55
2023-03-31T13:46:48.362Z,59.08
2023-03-31T13:50:05.261Z,63.45
2023-03-31T13:52:59.977Z,75.30
2023-03-31T13:56:13.641Z,76.89
2023-03-31T13:59:30.488Z,78.33
2023-03-31T14:02:48.153Z,80.49
2023-03-31T14:05:40.814Z,74.52
2023-03-31T14:08:39.558Z,75.87
2023-03-31T14:11:29.355Z,76.58
2023-03-31T14:14:19.513Z,69.41
2023-03-31T14:17:11.698Z,72.72
2023-03-31T14:20:20.758Z,71.03
2023-03-31T14:23:18.387Z,70.43
2023-03-31T14:26:10.149Z,68.86
2023-03-31T14:29:10.641Z,67.55
2023-03-31T14:32:03.192Z,66.88
2023-03-31T14:35:00.830Z,64.90
2023-03-31T14:37:49.240Z,65.36
2023-03-31T14:40:46.334Z,65.40
2023-03-31T14:43:36.293Z,66.81
2023-03-31T14:46:24.765Z,66.46
2023-03-31T14:49:22.017Z,66.99
2023-03-31T14:52:16.256Z,64.15
2023-03-31T14:55:05.314Z,62.96
2023-03-31T14:57:56.231Z,64.15
2023-03-31T15:00:44.725Z,64.31
2023-03-31T15:03:33.641Z,64.22
2023-03-31T15:06:25.408Z,65.07
2023-03-31T15:09:20.949Z,64.72
2023-03-31T15:12:13.679Z,65.51
2023-03-31T15:15:06.406Z,64.85
2023-03-31T15:17:55.409Z,66.45
2023-03-31T15:20:44.814Z,68.44
2023-03-31T15:23:33.239Z,69.47
2023-03-31T15:26:28.051Z,72.39
2023-03-31T15:29:21.989Z,69.73
2023-03-31T15:32:16.403Z,70.65
2023-03-31T15:35:18.811Z,70.45
2023-03-31T15:38:13.118Z,68.84
2023-03-31T15:41:01.918Z,68.85
2023-03-31T15:43:51.732Z,69.07
2023-03-31T15:46:59.403Z,65.82
2023-03-31T15:49:57.241Z,65.39
2023-03-31T15:52:49.114Z,64.65
2023-03-31T15:58:49.569Z,64.38
2023-03-31T16:01:45.289Z,64.30
2023-03-31T16:04:33.962Z,64.94
2023-03-31T16:07:27.131Z,65.52
2023-03-31T16:10:20.079Z,65.20
2023-03-31T16:13:10.004Z,64.05
2023-03-31T16:15:58.735Z,62.36
2023-03-31T16:18:48.922Z,63.17
2023-03-31T16:21:39.676Z,62.84
2023-03-31T16:24:54.827Z,63.84
2023-03-31T16:27:46.766Z,64.20
2023-03-31T16:30:37.304Z,64.56
2023-03-31T16:33:25.932Z,64.25
2023-03-31T16:36:16.100Z,65.45
2023-03-31T16:39:05.937Z,64.65
2023-03-31T16:41:55.826Z,65.38
2023-03-31T16:44:44.395Z,66.26
2023-03-31T16:47:36.169Z,66.46
2023-03-31T16:50:25.151Z,65.96
2023-03-31T16:53:13.984Z,67.00
2023-03-31T16:56:02.755Z,67.29
2023-03-31T16:58:53.748Z,67.11
2023-03-31T17:01:42.221Z,67.75
2023-03-31T17:04:30.685Z,67.28
2023-03-31T17:07:19.020Z,68.04
2023-03-31T17:10:09.107Z,68.54
2023-03-31T17:12:57.480Z,68.40
2023-03-31T17:15:48.120Z,68.83
2023-03-31T17:18:36.686Z,68.98
2023-03-31T17:21:26.228Z,68.13
2023-03-31T17:24:14.728Z,67.98
2023-03-31T17:27:03.279Z,67.26
2023-03-31T17:29:51.845Z,66.99
2023-03-31T17:32:41.702Z,69.40
2023-03-31T17:35:30.725Z,69.53
2023-03-31T17:38:21.430Z,71.51
2023-03-31T17:41:12.675Z,73.66
2023-03-31T17:44:01.235Z,74.77
2023-03-31T17:46:49.653Z,74.42
2023-03-31T17:49:39.423Z,73.23
2023-03-31T17:52:28.539Z,72.91
2023-03-31T17:55:17.267Z,73.43
2023-03-31T17:58:06.411Z,73.02
2023-03-31T18:00:54.877Z,73.26
2023-03-31T18:03:48.236Z,73.25
2023-03-31T18:06:39.022Z,72.39
2023-03-31T18:09:28.197Z,71.70
2023-03-31T18:12:16.619Z,72.13
2023-03-31T18:15:06.989Z,72.06
2023-03-31T18:17:55.878Z,72.22
2023-03-31T18:20:44.666Z,73.72
2023-03-31T18:23:34.822Z,72.46
2023-03-31T18:26:24.502Z,72.28
2023-03-31T18:29:12.856Z,72.36
2023-03-31T18:32:02.084Z,72.96
2023-03-31T18:34:50.582Z,72.52
2023-03-31T18:37:38.985Z,74.19
2023-03-31T18:40:29.988Z,73.62
2023-03-31T18:43:19.383Z,74.40
2023-03-31T18:46:08.178Z,74.36
2023-03-31T18:48:56.586Z,75.56
2023-03-31T18:51:45.068Z,74.83
2023-03-31T18:54:33.479Z,75.30
2023-03-31T18:57:23.490Z,75.14
2023-03-31T19:00:13.162Z,75.62
2023-03-31T19:03:02.053Z,75.32
2023-03-31T19:05:50.796Z,75.57
2023-03-31T19:08:39.684Z,76.26
2023-03-31T19:11:28.617Z,76.03
2023-03-31T19:14:18.361Z,75.76
2023-03-31T19:17:06.744Z,74.75
2023-03-31T19:19:55.167Z,75.04
2023-03-31T19:22:43.952Z,75.39
2023-03-31T19:25:32.523Z,74.34
2023-03-31T19:28:21.449Z,74.21
2023-03-31T19:31:11.599Z,74.82
2023-03-31T19:34:01.335Z,75.08
2023-03-31T19:36:49.688Z,74.75
2023-03-31T19:39:38.751Z,75.41
2023-03-31T19:42:27.112Z,75.79
2023-03-31T19:45:15.474Z,76.08
2023-03-31T19:48:05.350Z,75.90
2023-03-31T19:50:55.817Z,76.65
2023-03-31T19:53:44.636Z,76.29
2023-03-31T19:56:33.497Z,75.56
2023-03-31T19:59:22.044Z,75.73
2023-03-31T20:02:12.756Z,75.63
2023-03-31T20:05:02.629Z,75.49
2023-03-31T20:07:51.795Z,76.32
2023-03-31T20:10:40.467Z,75.24
2023-03-31T20:13:29.094Z,74.86
2023-03-31T20:16:19.342Z,75.68
2023-03-31T20:19:07.955Z,75.70
2023-03-31T20:21:58.024Z,74.84
2023-03-31T20:24:46.422Z,75.91
2023-03-31T20:27:34.777Z,74.32
2023-03-31T20:30:23.199Z,74.70
2023-03-31T20:33:11.984Z,75.03
2023-03-31T20:36:02.739Z,74.52
2023-03-31T20:38:54.394Z,74.37
2023-03-31T20:41:43.444Z,74.54
2023-03-31T20:44:32.413Z,74.62
2023-03-31T20:47:21.053Z,75.00
2023-03-31T20:50:09.927Z,74.01
2023-03-31T20:52:58.690Z,74.20
2023-03-31T20:55:48.708Z,73.95
2023-03-31T20:58:37.452Z,74.27
2023-03-31T21:01:27.349Z,73.82
2023-03-31T21:04:17.157Z,73.76
2023-03-31T21:07:05.921Z,74.04
2023-03-31T21:09:54.483Z,74.62
2023-03-31T21:12:46.345Z,73.98
2023-03-31T21:15:34.846Z,73.71
2023-03-31T21:18:23.395Z,73.99
2023-03-31T21:21:13.468Z,73.89
2023-03-31T21:24:02.043Z,73.80
2023-03-31T21:26:50.547Z,73.38
2023-03-31T21:29:40.529Z,72.58
2023-03-31T21:32:29.628Z,72.82
2023-03-31T21:35:18.384Z,72.55
2023-03-31T21:38:06.752Z,72.62
2023-03-31T21:40:55.830Z,72.54
2023-03-31T21:43:44.980Z,73.25
2023-03-31T21:46:34.906Z,71.98
2023-03-31T21:49:23.699Z,72.28
2023-03-31T21:52:12.104Z,72.63
2023-03-31T21:55:00.522Z,72.83
2023-03-31T21:57:48.955Z,73.01
2023-03-31T22:00:37.386Z,71.68
2023-03-31T22:03:29.038Z,72.07
2023-03-31T22:06:18.013Z,71.47
2023-03-31T22:09:06.505Z,72.61
2023-03-31T22:11:54.969Z,72.37
2023-03-31T22:14:44.485Z,71.48
2023-03-31T22:17:32.856Z,71.64
2023-03-31T22:20:22.700Z,71.25
2023-03-31T22:23:11.486Z,71.71
2023-03-31T22:25:59.840Z,72.34
2023-03-31T22:28:48.476Z,72.03
2023-03-31T22:31:36.884Z,71.34
2023-03-31T22:34:25.510Z,71.15
2023-03-31T22:37:15.836Z,71.68
2023-03-31T22:40:04.487Z,71.34
2023-03-31T22:42:54.705Z,71.66
2023-03-31T22:45:43.119Z,71.85
2023-03-31T22:48:31.615Z,71.63
2023-03-31T22:51:20.062Z,71.51
2023-03-31T22:54:14.024Z,70.87
2023-03-31T22:57:02.504Z,71.65
2023-03-31T22:59:50.849Z,71.90
2023-03-31T23:02:39.315Z,71.96
2023-03-31T23:05:27.736Z,72.36
2023-03-31T23:08:16.124Z,72.95
2023-03-31T23:11:07.604Z,72.08
2023-03-31T23:13:56.261Z,72.91
2023-03-31T23:16:44.717Z,73.01
2023-03-31T23:19:33.709Z,72.71
2023-03-31T23:22:22.131Z,72.41
2023-03-31T23:25:10.869Z,73.18
2023-03-31T23:28:01.301Z,72.84
2023-03-31T23:30:56.486Z,72.41
2023-03-31T23:33:44.859Z,72.55
2023-03-31T23:36:33.283Z,73.74
2023-03-31T23:39:21.702Z,73.97
2023-03-31T23:42:12.570Z,74.18
2023-03-31T23:45:02.264Z,73.64
2023-03-31T23:47:51.333Z,74.83
2023-03-31T23:50:39.910Z,74.28
2023-03-31T23:53:28.691Z,74.26
2023-03-31T23:56:17.035Z,74.41
2023-03-31T23:59:05.401Z,74.95
